createdAt,value
2018-01-23T00:02:09.817Z,41.90
2018-01-23T00:04:36.143Z,43.37
2018-01-23T00:07:02.503Z,41.40
2018-01-23T00:09:28.728Z,42.97
2018-01-23T00:11:54.944Z,34.80
2018-01-23T00:14:21.256Z,27.43
2018-01-23T00:16:47.574Z,30.53
2018-01-23T00:19:13.761Z,31.20
2018-01-23T00:21:40.029Z,24.43
2018-01-23T00:24:06.342Z,23.83
2018-01-23T00:26:33.351Z,24.60
2018-01-23T00:28:59.593Z,21.70
2018-01-23T00:31:25.857Z,23.13
2018-01-23T00:33:52.891Z,22.67
2018-01-23T00:36:19.175Z,23.20
2018-01-23T00:38:45.389Z,22.70
2018-01-23T00:41:11.879Z,27.70
2018-01-23T00:43:38.155Z,30.50
2018-01-23T00:46:04.397Z,32.27
2018-01-23T00:48:30.699Z,34.77
2018-01-23T00:50:56.947Z,42.07
2018-01-23T00:53:23.160Z,40.37
2018-01-23T00:55:49.442Z,39.73
2018-01-23T00:58:15.682Z,45.47
2018-01-23T01:00:41.944Z,39.83
2018-01-23T01:03:08.976Z,41.17
2018-01-23T01:05:35.355Z,43.63
2018-01-23T01:08:01.642Z,50.47
2018-01-23T01:10:28.594Z,57.20
2018-01-23T01:12:55.624Z,55.70
2018-01-23T01:15:21.846Z,64.70
2018-01-23T01:17:48.120Z,66.13
2018-01-23T01:20:14.353Z,64.23
2018-01-23T01:22:40.623Z,61.27
2018-01-23T01:25:06.877Z,55.40
2018-01-23T01:27:33.936Z,69.17
2018-01-23T01:30:00.903Z,59.30
2018-01-23T01:32:27.155Z,60.53
2018-01-23T01:34:53.375Z,63.10
2018-01-23T01:37:19.633Z,70.27
2018-01-23T01:39:45.867Z,57.47
2018-01-23T01:42:12.227Z,60.73
2018-01-23T01:44:39.224Z,67.83
2018-01-23T01:47:05.519Z,68.27
2018-01-23T01:49:31.769Z,63.63
2018-01-23T01:51:58.091Z,67.40
2018-01-23T01:54:24.383Z,64.33
2018-01-23T01:56:50.665Z,55.03
2018-01-23T01:59:16.951Z,60.93
2018-01-23T02:01:43.938Z,58.77
2018-01-23T02:04:10.224Z,56.20
2018-01-23T02:06:37.242Z,58.57
2018-01-23T02:09:03.480Z,54.20
2018-01-23T02:11:29.753Z,55.60
2018-01-23T02:13:55.999Z,51.87
2018-01-23T02:16:22.284Z,54.30
2018-01-23T02:18:48.516Z,41.60
2018-01-23T02:21:15.574Z,45.13
2018-01-23T02:23:42.563Z,41.10
2018-01-23T02:26:08.845Z,36.87
2018-01-23T02:28:35.861Z,40.23
2018-01-23T02:31:02.181Z,36.00
2018-01-23T02:33:28.464Z,40.37
2018-01-23T02:35:55.457Z,33.27
2018-01-23T02:38:21.713Z,22.00
2018-01-23T02:40:47.972Z,27.30
2018-01-23T02:43:14.994Z,23.97
2018-01-23T02:45:42.726Z,21.40
2018-01-23T02:48:09.216Z,23.27
2018-01-23T02:50:36.174Z,18.50
2018-01-23T02:53:02.420Z,16.47
2018-01-23T02:55:28.690Z,14.00
2018-01-23T02:57:54.924Z,13.60
2018-01-23T03:00:21.212Z,14.63
2018-01-23T03:02:47.446Z,9.33
2018-01-23T03:05:13.790Z,9.80
2018-01-23T03:07:40.068Z,10.60
2018-01-23T03:10:07.094Z,10.27
2018-01-23T03:12:33.387Z,10.30
2018-01-23T03:14:59.697Z,11.97
2018-01-23T03:17:27.013Z,10.17
2018-01-23T03:19:53.333Z,9.23
2018-01-23T03:22:19.565Z,8.83
2018-01-23T03:24:45.860Z,6.97
2018-01-23T03:27:12.190Z,9.80
2018-01-23T03:29:38.411Z,7.20
2018-01-23T03:32:04.688Z,6.73
2018-01-23T03:34:30.915Z,7.00
2018-01-23T03:36:57.202Z,6.03
2018-01-23T03:39:23.434Z,7.03
2018-01-23T03:41:49.696Z,12.03
2018-01-23T03:44:15.938Z,9.60
2018-01-23T03:46:42.256Z,7.50
2018-01-23T03:49:08.585Z,8.23
2018-01-23T03:51:34.867Z,10.30
2018-01-23T03:54:01.110Z,6.13
2018-01-23T03:56:27.632Z,6.90
2018-01-23T03:58:53.890Z,8.17
2018-01-23T04:01:20.176Z,9.23
2018-01-23T04:03:47.184Z,6.87
2018-01-23T04:06:13.487Z,9.03
2018-01-23T04:08:39.784Z,8.90
2018-01-23T04:11:06.818Z,8.03
2018-01-23T04:13:33.821Z,15.10
2018-01-23T04:16:00.157Z,10.23
2018-01-23T04:18:26.443Z,9.30
2018-01-23T04:20:53.485Z,8.60
2018-01-23T04:23:20.453Z,10.27
2018-01-23T04:25:46.719Z,9.90
2018-01-23T04:28:13.029Z,13.10
2018-01-23T04:30:39.345Z,11.10
2018-01-23T04:33:05.600Z,13.93
2018-01-23T04:35:31.911Z,13.50
2018-01-23T04:37:58.167Z,14.00
2018-01-23T04:40:24.422Z,13.03
2018-01-23T04:42:50.675Z,15.23
2018-01-23T04:45:17.738Z,13.60
2018-01-23T04:47:43.966Z,15.70
2018-01-23T04:50:10.224Z,15.13
2018-01-23T04:52:36.506Z,15.63
2018-01-23T04:55:03.668Z,18.93
2018-01-23T04:57:29.972Z,18.17
2018-01-23T04:59:56.224Z,21.93
2018-01-23T05:02:22.493Z,14.97
2018-01-23T05:04:48.760Z,17.10
2018-01-23T05:07:15.043Z,13.50
2018-01-23T05:09:41.313Z,15.07
2018-01-23T05:12:07.614Z,13.83
2018-01-23T05:14:33.903Z,18.90
2018-01-23T05:17:00.192Z,10.67
2018-01-23T05:19:26.544Z,10.33
2018-01-23T05:21:52.895Z,11.33
2018-01-23T05:24:19.924Z,11.13
2018-01-23T05:26:46.235Z,13.00
2018-01-23T05:29:12.511Z,12.57
2018-01-23T05:31:38.882Z,13.70
2018-01-23T05:34:05.207Z,13.17
2018-01-23T05:36:31.619Z,14.30
2018-01-23T05:38:57.936Z,10.47
2018-01-23T05:41:25.190Z,12.87
2018-01-23T05:43:51.708Z,12.23
2018-01-23T05:46:18.871Z,13.20
2018-01-23T05:48:45.925Z,12.97
2018-01-23T05:51:12.302Z,8.63
2018-01-23T05:53:38.593Z,13.33
2018-01-23T05:56:04.862Z,8.50
2018-01-23T05:58:31.156Z,10.90
2018-01-23T06:00:57.514Z,8.33
2018-01-23T06:03:23.990Z,8.40
2018-01-23T06:05:51.090Z,7.53
2018-01-23T06:08:17.495Z,12.83
2018-01-23T06:10:43.811Z,12.90
2018-01-23T06:13:10.833Z,11.90
2018-01-23T06:15:37.119Z,10.37
2018-01-23T06:18:03.429Z,7.80
2018-01-23T06:20:30.469Z,13.00
2018-01-23T06:22:57.505Z,7.60
2018-01-23T06:25:23.779Z,10.73
2018-01-23T06:27:50.014Z,6.53
2018-01-23T06:30:16.326Z,8.60
2018-01-23T06:32:42.592Z,8.33
2018-01-23T06:35:10.362Z,10.63
2018-01-23T06:37:37.316Z,11.30
2018-01-23T06:40:04.366Z,9.97
2018-01-23T06:42:30.684Z,12.17
2018-01-23T06:44:56.938Z,13.40
2018-01-23T06:47:23.176Z,15.90
2018-01-23T06:49:50.192Z,20.73
2018-01-23T06:52:16.437Z,16.70
2018-01-23T06:54:42.682Z,16.37
2018-01-23T06:57:09.685Z,16.37
2018-01-23T06:59:35.945Z,23.07
2018-01-23T07:02:02.245Z,20.77
2018-01-23T07:04:28.480Z,20.20
2018-01-23T07:06:54.737Z,25.07
2018-01-23T07:09:20.993Z,26.23
2018-01-23T07:11:48.015Z,19.97
2018-01-23T07:14:15.775Z,30.80
2018-01-23T07:16:42.033Z,21.97
2018-01-23T07:19:09.058Z,23.53
2018-01-23T07:21:35.296Z,19.40
2018-01-23T07:24:02.273Z,18.03
2018-01-23T07:26:28.558Z,18.50
2018-01-23T07:28:54.903Z,20.70
2018-01-23T07:31:21.868Z,23.20
2018-01-23T07:33:55.459Z,26.33
2018-01-23T07:36:22.687Z,34.33
2018-01-23T07:38:48.934Z,24.93
2018-01-23T07:41:15.968Z,25.20
2018-01-23T07:43:42.274Z,27.07
2018-01-23T07:46:08.492Z,24.10
2018-01-23T07:48:34.762Z,29.80
2018-01-23T07:51:01.808Z,24.00
2018-01-23T07:53:28.096Z,27.90
2018-01-23T07:55:54.344Z,23.30
2018-01-23T07:58:20.598Z,18.73
2018-01-23T08:00:46.850Z,22.60
2018-01-23T08:03:13.838Z,24.83
2018-01-23T08:05:40.829Z,26.63
2018-01-23T08:08:07.843Z,24.90
2018-01-23T08:10:34.099Z,25.20
2018-01-23T08:13:00.339Z,26.57
2018-01-23T08:15:27.355Z,30.83
2018-01-23T08:17:53.599Z,28.43
2018-01-23T08:20:19.901Z,27.90
2018-01-23T08:22:46.119Z,29.67
2018-01-23T08:25:12.343Z,31.03
2018-01-23T08:27:38.622Z,32.57
2018-01-23T08:30:04.939Z,32.10
2018-01-23T08:32:31.168Z,33.50
2018-01-23T08:34:57.397Z,26.60
2018-01-23T08:37:23.629Z,36.10
2018-01-23T08:39:49.920Z,31.73
2018-01-23T08:42:16.274Z,37.90
2018-01-23T08:44:42.501Z,33.93
2018-01-23T08:47:08.726Z,28.47
2018-01-23T08:49:34.973Z,32.03
2018-01-23T08:52:01.224Z,26.13
2018-01-23T08:54:27.488Z,30.43
2018-01-23T08:56:53.752Z,24.50
2018-01-23T08:59:20.050Z,25.43
2018-01-23T09:01:46.302Z,23.63
2018-01-23T09:04:12.576Z,24.23
2018-01-23T09:06:39.588Z,21.07
2018-01-23T09:09:05.858Z,16.80
2018-01-23T09:11:32.842Z,22.47
2018-01-23T09:13:59.941Z,23.00
2018-01-23T09:16:26.178Z,19.27
2018-01-23T09:18:53.139Z,21.00
2018-01-23T09:21:20.339Z,18.17
2018-01-23T09:23:46.631Z,22.73
2018-01-23T09:26:12.879Z,21.10
2018-01-23T09:28:39.155Z,20.07
2018-01-23T09:31:05.453Z,17.57
2018-01-23T09:33:31.725Z,18.97
2018-01-23T09:35:58.734Z,23.83
2018-01-23T09:38:24.999Z,20.10
2018-01-23T09:40:58.795Z,17.80
2018-01-23T09:43:25.045Z,15.80
2018-01-23T09:45:52.037Z,18.87
2018-01-23T09:48:18.243Z,20.77
2018-01-23T09:50:44.555Z,17.20
2018-01-23T09:53:11.549Z,15.23
2018-01-23T09:55:38.425Z,15.87
2018-01-23T09:58:05.419Z,16.63
2018-01-23T10:00:31.697Z,14.60
2018-01-23T10:02:57.943Z,15.73
2018-01-23T10:05:24.893Z,22.33
2018-01-23T10:07:51.926Z,16.90
2018-01-23T10:10:18.156Z,20.63
2018-01-23T10:12:44.422Z,19.50
2018-01-23T10:15:10.699Z,22.00
2018-01-23T10:17:36.930Z,23.73
2018-01-23T10:20:03.197Z,22.43
2018-01-23T10:22:29.455Z,22.27
2018-01-23T10:24:55.738Z,27.23
2018-01-23T10:27:22.694Z,20.57
2018-01-23T10:29:49.717Z,22.07
2018-01-23T10:32:15.992Z,21.00
2018-01-23T10:34:42.238Z,18.13
2018-01-23T10:37:08.492Z,21.60
2018-01-23T10:39:35.506Z,21.30
2018-01-23T10:42:01.867Z,16.57
2018-01-23T10:44:28.175Z,18.70
2018-01-23T10:46:54.776Z,19.70
2018-01-23T10:49:21.761Z,18.30
2018-01-23T10:51:48.011Z,18.77
2018-01-23T10:54:14.312Z,21.30
2018-01-23T10:56:40.591Z,22.17
2018-01-23T10:59:06.885Z,21.53
2018-01-23T11:01:39.254Z,26.10
2018-01-23T11:04:05.554Z,22.70
2018-01-23T11:06:32.582Z,39.47
2018-01-23T11:08:59.783Z,23.47
2018-01-23T11:11:26.050Z,19.97
2018-01-23T11:13:52.331Z,18.87
2018-01-23T11:16:18.616Z,18.03
2018-01-23T11:18:44.941Z,24.60
2018-01-23T11:21:11.203Z,21.83
2018-01-23T11:23:38.411Z,26.63
2018-01-23T11:26:04.656Z,24.10
2018-01-23T11:28:30.915Z,25.33
2018-01-23T11:31:05.606Z,19.50
2018-01-23T11:33:31.842Z,30.47
2018-01-23T11:35:58.124Z,25.33
2018-01-23T11:38:24.386Z,23.40
2018-01-23T11:40:50.622Z,27.60
2018-01-23T11:43:17.027Z,32.70
2018-01-23T11:45:43.385Z,23.93
2018-01-23T11:48:09.672Z,23.67
2018-01-23T11:50:36.039Z,24.33
2018-01-23T11:53:02.287Z,24.83
2018-01-23T11:55:28.639Z,23.93
2018-01-23T11:57:55.614Z,28.37
2018-01-23T12:00:21.881Z,31.37
2018-01-23T12:02:48.159Z,20.93
2018-01-23T12:05:14.481Z,30.67
2018-01-23T12:07:41.513Z,18.90
2018-01-23T12:10:08.548Z,30.37
2018-01-23T12:12:34.969Z,25.00
2018-01-23T12:15:01.232Z,22.70
2018-01-23T12:17:27.456Z,22.77
2018-01-23T12:19:54.556Z,21.30
2018-01-23T12:22:20.776Z,24.20
2018-01-23T12:24:47.067Z,27.20
2018-01-23T12:27:14.049Z,19.20
2018-01-23T12:29:40.334Z,26.33
2018-01-23T12:32:07.314Z,23.20
2018-01-23T12:34:33.577Z,28.93
2018-01-23T12:37:00.662Z,31.77
2018-01-23T12:39:27.054Z,29.43
2018-01-23T12:41:53.335Z,29.00
2018-01-23T12:44:19.624Z,25.57
2018-01-23T12:46:45.887Z,21.00
2018-01-23T12:49:12.878Z,23.30
2018-01-23T12:51:39.121Z,16.00
2018-01-23T12:54:05.385Z,19.37
2018-01-23T12:56:31.635Z,18.67
2018-01-23T12:58:57.951Z,15.20
2018-01-23T13:01:24.971Z,19.63
2018-01-23T13:03:52.750Z,24.23
2018-01-23T13:06:19.028Z,15.93
2018-01-23T13:08:45.756Z,15.20
2018-01-23T13:11:12.016Z,16.83
2018-01-23T13:13:38.270Z,16.07
2018-01-23T13:16:04.532Z,20.53
2018-01-23T13:18:31.520Z,25.83
2018-01-23T13:20:57.740Z,17.67
2018-01-23T13:23:23.978Z,20.80
2018-01-23T13:25:50.245Z,15.90
2018-01-23T13:28:16.492Z,20.90
2018-01-23T13:30:43.551Z,20.37
2018-01-23T13:33:10.570Z,14.13
2018-01-23T13:35:36.829Z,16.13
2018-01-23T13:38:03.807Z,12.97
2018-01-23T13:40:30.113Z,19.90
2018-01-23T13:42:56.605Z,19.17
2018-01-23T13:45:23.019Z,24.90
2018-01-23T13:47:49.313Z,21.90
2018-01-23T13:50:15.579Z,22.43
2018-01-23T13:52:42.154Z,16.57
2018-01-23T13:55:09.168Z,18.13
2018-01-23T13:57:35.434Z,21.80
2018-01-23T14:00:02.405Z,24.57
2018-01-23T14:02:28.637Z,18.60
2018-01-23T14:04:54.936Z,17.80
2018-01-23T14:07:21.966Z,27.37
2018-01-23T14:09:49.730Z,20.20
2018-01-23T14:12:16.048Z,22.00
2018-01-23T14:14:42.313Z,17.67
2018-01-23T14:17:09.319Z,22.63
2018-01-23T14:19:35.607Z,22.03
2018-01-23T14:22:02.620Z,21.00
2018-01-23T14:24:28.884Z,16.30
2018-01-23T14:26:55.140Z,29.13
2018-01-23T14:29:21.571Z,21.77
2018-01-23T14:31:48.025Z,18.20
2018-01-23T14:34:15.293Z,16.93
2018-01-23T14:36:41.546Z,15.50
2018-01-23T14:39:07.854Z,13.87
2018-01-23T14:41:34.155Z,21.97
2018-01-23T14:44:00.454Z,25.90
2018-01-23T14:46:26.761Z,19.47
2018-01-23T14:48:53.790Z,17.17
2018-01-23T14:51:20.054Z,12.93
2018-01-23T14:53:47.134Z,17.13
2018-01-23T14:56:13.408Z,19.00
2018-01-23T14:58:39.709Z,12.93
2018-01-23T15:01:06.001Z,19.13
2018-01-23T15:03:32.956Z,14.30
2018-01-23T15:05:59.248Z,23.00
2018-01-23T15:08:27.005Z,23.83
2018-01-23T15:10:53.255Z,16.63
2018-01-23T15:13:19.559Z,16.40
2018-01-23T15:15:45.863Z,15.10
2018-01-23T15:18:13.020Z,12.63
2018-01-23T15:20:39.255Z,14.60
2018-01-23T15:23:05.519Z,16.57
2018-01-23T15:25:31.771Z,15.70
2018-01-23T15:27:57.993Z,20.90
2018-01-23T15:30:25.012Z,17.53
2018-01-23T15:32:51.272Z,21.90
2018-01-23T15:35:17.556Z,17.57
2018-01-23T15:37:43.882Z,16.73
2018-01-23T15:40:10.168Z,21.60
2018-01-23T15:42:37.158Z,22.80
2018-01-23T15:45:03.445Z,18.20
2018-01-23T15:47:30.458Z,21.83
2018-01-23T15:49:56.738Z,19.40
2018-01-23T15:52:23.007Z,21.97
2018-01-23T15:54:49.287Z,15.77
2018-01-23T15:57:15.494Z,17.03
2018-01-23T15:59:42.503Z,13.57
2018-01-23T16:02:08.756Z,17.33
2018-01-23T16:04:35.055Z,19.17
2018-01-23T16:07:01.403Z,15.00
2018-01-23T16:09:27.822Z,19.53
2018-01-23T16:11:54.341Z,13.70
2018-01-23T16:14:20.636Z,16.00
2018-01-23T16:16:47.729Z,12.40
2018-01-23T16:19:14.040Z,16.67
2018-01-23T16:21:40.358Z,17.20
2018-01-23T16:24:06.666Z,12.90
2018-01-23T16:26:33.748Z,18.00
2018-01-23T16:29:00.048Z,14.33
2018-01-23T16:31:26.362Z,11.30
2018-01-23T16:33:52.705Z,13.20
2018-01-23T16:36:19.030Z,19.57
2018-01-23T16:38:45.464Z,17.43
2018-01-23T16:41:11.738Z,19.73
2018-01-23T16:43:38.368Z,14.47
2018-01-23T16:46:04.736Z,17.50
2018-01-23T16:48:31.021Z,14.73
2018-01-23T16:50:57.355Z,14.77
2018-01-23T16:53:24.403Z,23.17
2018-01-23T16:55:50.814Z,11.57
2018-01-23T16:58:17.282Z,13.10
2018-01-23T17:00:43.593Z,19.03
2018-01-23T17:03:12.780Z,14.80
2018-01-23T17:05:39.666Z,15.37
2018-01-23T17:08:06.027Z,19.90
2018-01-23T17:10:32.726Z,16.70
2018-01-23T17:12:59.119Z,12.57
2018-01-23T17:15:25.449Z,20.90
2018-01-23T17:17:51.819Z,18.03
2018-01-23T17:20:18.196Z,22.43
2018-01-23T17:22:44.550Z,14.63
2018-01-23T17:25:11.660Z,18.50
2018-01-23T17:27:38.022Z,20.90
2018-01-23T17:30:04.339Z,14.30
2018-01-23T17:32:30.742Z,13.53
2018-01-23T17:34:57.134Z,14.90
2018-01-23T17:37:24.193Z,15.90
2018-01-23T17:39:51.235Z,19.00
2018-01-23T17:42:18.313Z,19.13
2018-01-23T17:44:44.673Z,18.17
2018-01-23T17:47:10.989Z,17.10
2018-01-23T17:49:38.056Z,18.40
2018-01-23T17:52:04.367Z,18.80
2018-01-23T17:54:31.471Z,12.07
2018-01-23T17:56:57.716Z,12.80
2018-01-23T17:59:24.730Z,19.60
2018-01-23T18:01:50.974Z,17.50
2018-01-23T18:04:17.275Z,19.20
2018-01-23T18:06:43.560Z,19.33
2018-01-23T18:09:10.570Z,15.47
2018-01-23T18:11:36.880Z,18.73
2018-01-23T18:14:03.164Z,24.93
2018-01-23T18:16:30.176Z,16.80
2018-01-23T18:18:56.516Z,23.90
2018-01-23T18:21:22.999Z,18.97
2018-01-23T18:23:49.308Z,18.20
2018-01-23T18:26:16.328Z,21.50
2018-01-23T18:28:42.595Z,17.67
2018-01-23T18:31:09.001Z,17.90
2018-01-23T18:33:36.015Z,23.10
2018-01-23T18:36:02.341Z,14.47
2018-01-23T18:38:28.623Z,16.50
2018-01-23T18:40:55.751Z,16.83
2018-01-23T18:43:22.071Z,17.93
2018-01-23T18:45:48.433Z,15.43
2018-01-23T18:48:15.495Z,14.10
2018-01-23T18:50:42.540Z,15.33
2018-01-23T18:53:09.604Z,15.17
2018-01-23T18:55:36.143Z,13.03
2018-01-23T18:58:02.445Z,15.00
2018-01-23T19:00:29.456Z,18.43
2018-01-23T19:02:55.960Z,15.23
2018-01-23T19:05:23.171Z,12.97
2018-01-23T19:07:50.236Z,15.17
2018-01-23T19:10:17.274Z,14.10
2018-01-23T19:12:44.321Z,16.17
2018-01-23T19:15:11.457Z,20.70
2018-01-23T19:17:37.729Z,11.60
2018-01-23T19:20:04.034Z,13.40
2018-01-23T19:22:31.296Z,14.03
2018-01-23T19:24:58.960Z,13.47
2018-01-23T19:27:25.243Z,9.90
2018-01-23T19:29:51.546Z,15.00
2018-01-23T19:32:17.900Z,9.93
2018-01-23T19:34:44.229Z,12.97
2018-01-23T19:37:11.255Z,17.07
2018-01-23T19:39:37.594Z,10.23
2018-01-23T19:42:03.876Z,12.57
2018-01-23T19:44:30.880Z,8.90
2018-01-23T19:46:57.832Z,11.90
2018-01-23T19:49:24.130Z,10.20
2018-01-23T19:51:50.469Z,7.57
2018-01-23T19:54:16.759Z,8.77
2018-01-23T19:56:43.753Z,12.93
2018-01-23T19:59:10.032Z,9.73
2018-01-23T20:01:36.314Z,7.83
2018-01-23T20:04:02.609Z,7.80
2018-01-23T20:06:29.642Z,13.37
2018-01-23T20:08:56.915Z,9.47
2018-01-23T20:11:23.937Z,6.10
2018-01-23T20:13:50.414Z,7.03
2018-01-23T20:16:17.119Z,6.13
2018-01-23T20:18:44.232Z,5.50
2018-01-23T20:21:10.603Z,7.33
2018-01-23T20:23:37.972Z,8.60
2018-01-23T20:26:05.026Z,8.40
2018-01-23T20:28:46.403Z,6.27
2018-01-23T20:31:12.734Z,9.17
2018-01-23T20:33:39.860Z,7.40
2018-01-23T20:36:06.180Z,6.50
2018-01-23T20:38:33.685Z,8.03
2018-01-23T20:41:00.743Z,8.20
2018-01-23T20:43:28.110Z,5.77
2018-01-23T20:45:54.501Z,12.90
2018-01-23T20:48:21.615Z,5.90
2018-01-23T20:50:47.892Z,6.90
2018-01-23T20:53:14.184Z,6.33
2018-01-23T20:55:40.498Z,4.80
2018-01-23T20:58:06.875Z,9.83
2018-01-23T21:00:33.895Z,11.00
2018-01-23T21:03:00.168Z,4.83
2018-01-23T21:05:26.449Z,5.50
2018-01-23T21:07:52.725Z,7.60
2018-01-23T21:10:19.045Z,5.07
2018-01-23T21:12:46.140Z,5.50
2018-01-23T21:15:12.445Z,3.40
2018-01-23T21:17:38.973Z,7.93
2018-01-23T21:20:06.038Z,5.47
2018-01-23T21:22:32.341Z,7.90
2018-01-23T21:25:00.322Z,16.20
2018-01-23T21:27:26.576Z,6.00
2018-01-23T21:32:50.524Z,11.30
2018-01-23T21:35:16.781Z,4.60
2018-01-23T21:37:43.016Z,10.87
2018-01-23T21:40:09.243Z,8.43
2018-01-23T21:42:35.479Z,9.90
2018-01-23T21:45:01.789Z,8.40
2018-01-23T21:47:28.797Z,9.93
2018-01-23T21:49:55.148Z,7.20
2018-01-23T21:52:21.407Z,4.97
2018-01-23T21:54:47.753Z,11.00
2018-01-23T21:57:13.983Z,11.23
2018-01-23T21:59:40.208Z,10.27
2018-01-23T22:02:06.451Z,12.70
2018-01-23T22:04:32.692Z,6.23
2018-01-23T22:06:58.964Z,11.93
2018-01-23T22:09:25.955Z,10.63
2018-01-23T22:11:52.187Z,5.17
2018-01-23T22:14:18.449Z,8.17
2018-01-23T22:16:44.702Z,4.87
2018-01-23T22:19:11.708Z,5.20
2018-01-23T22:21:37.989Z,6.30
2018-01-23T22:24:05.244Z,6.87
2018-01-23T22:26:32.378Z,8.23
2018-01-23T22:28:59.468Z,6.57
2018-01-23T22:31:25.822Z,6.60
2018-01-23T22:33:52.899Z,8.43
2018-01-23T22:36:19.135Z,8.33
2018-01-23T22:38:46.109Z,10.40
2018-01-23T22:41:12.348Z,5.50
2018-01-23T22:43:38.671Z,8.43
2018-01-23T22:46:04.978Z,6.07
2018-01-23T22:48:32.017Z,5.37
2018-01-23T22:50:58.269Z,5.43
2018-01-23T22:53:24.511Z,9.73
2018-01-23T22:55:50.748Z,5.07
2018-01-23T22:58:17.052Z,11.13
2018-01-23T23:00:44.073Z,4.17
2018-01-23T23:03:10.379Z,4.50
2018-01-23T23:05:36.648Z,8.27
2018-01-23T23:08:02.925Z,6.70
2018-01-23T23:10:29.184Z,10.23
2018-01-23T23:12:55.447Z,5.00
2018-01-23T23:15:22.436Z,6.60
2018-01-23T23:17:49.634Z,9.07
2018-01-23T23:20:16.596Z,7.53
2018-01-23T23:22:42.842Z,4.70
2018-01-23T23:25:09.137Z,9.53
2018-01-23T23:27:36.127Z,4.30
2018-01-23T23:30:02.469Z,9.73
2018-01-23T23:32:28.744Z,6.20
2018-01-23T23:37:27.608Z,4.70
2018-01-23T23:39:53.928Z,7.50
2018-01-23T23:42:20.168Z,11.63
2018-01-23T23:44:46.434Z,7.27
2018-01-23T23:47:12.674Z,4.93
2018-01-23T23:49:39.654Z,7.10
2018-01-23T23:52:05.898Z,4.30
2018-01-23T23:54:32.160Z,10.70
2018-01-23T23:56:58.402Z,5.67
2018-01-23T23:59:24.664Z,11.23
